sensor_id;sensor_type;location;lat;lon;timestamp;noise_LAeq;noise_LA_min;noise_LA_max;noise_LA01;noise_LA95
66456;Laerm;56833;52.254;5.598;2023-05-07T00:00:06;42.54;41.52;43.42;;
66456;Laerm;56833;52.254;5.598;2023-05-07T00:00:18;42.55;41.33;43.58;;
66456;Laerm;56833;52.254;5.598;2023-05-07T00:00:29;42.53;41.54;43.72;;
66456;Laerm;56833;52.254;5.598;2023-05-07T00:00:40;42.55;41.42;43.45;;
66456;Laerm;56833;52.254;5.598;2023-05-07T00:00:50;42.54;41.34;43.58;;
66456;Laerm;56833;52.254;5.598;2023-05-07T00:01:01;42.51;41.53;43.56;;
66456;Laerm;56833;52.254;5.598;2023-05-07T00:01:12;42.52;41.53;43.63;;
66456;Laerm;56833;52.254;5.598;2023-05-07T00:01:22;42.53;41.39;43.50;;
66456;Laerm;56833;52.254;5.598;2023-05-07T00:01:33;42.48;41.44;43.36;;
66456;Laerm;56833;52.254;5.598;2023-05-07T00:01:43;42.56;41.48;43.70;;
66456;Laerm;56833;52.254;5.598;2023-05-07T00:01:53;42.50;41.13;43.62;;
66456;Laerm;56833;52.254;5.598;2023-05-07T00:02:04;42.51;41.43;43.42;;
66456;Laerm;56833;52.254;5.598;2023-05-07T00:02:14;42.50;41.35;43.57;;
66456;Laerm;56833;52.254;5.598;2023-05-07T00:02:25;42.49;41.31;43.48;;
66456;Laerm;56833;52.254;5.598;2023-05-07T00:02:35;42.50;41.07;43.36;;
66456;Laerm;56833;52.254;5.598;2023-05-07T00:02:47;42.51;41.47;43.38;;
66456;Laerm;56833;52.254;5.598;2023-05-07T00:02:57;42.51;41.51;43.59;;
66456;Laerm;56833;52.254;5.598;2023-05-07T00:03:07;42.51;41.55;43.79;;
66456;Laerm;56833;52.254;5.598;2023-05-07T00:03:18;42.50;41.57;43.44;;
66456;Laerm;56833;52.254;5.598;2023-05-07T00:03:29;42.54;41.39;43.61;;
66456;Laerm;56833;52.254;5.598;2023-05-07T00:03:39;42.47;41.14;43.50;;
66456;Laerm;56833;52.254;5.598;2023-05-07T00:03:49;42.53;41.21;43.41;;
66456;Laerm;56833;52.254;5.598;2023-05-07T00:04:00;42.50;41.49;43.60;;
66456;Laerm;56833;52.254;5.598;2023-05-07T00:04:10;42.49;41.23;43.60;;
66456;Laerm;56833;52.254;5.598;2023-05-07T00:04:20;42.47;41.15;43.31;;
66456;Laerm;56833;52.254;5.598;2023-05-07T00:04:31;42.51;41.62;43.63;;
66456;Laerm;56833;52.254;5.598;2023-05-07T00:04:46;42.48;41.23;43.44;;
66456;Laerm;56833;52.254;5.598;2023-05-07T00:04:56;42.53;41.40;43.44;;
66456;Laerm;56833;52.254;5.598;2023-05-07T00:05:07;42.50;41.42;43.50;;
66456;Laerm;56833;52.254;5.598;2023-05-07T00:05:18;42.52;41.44;43.49;;
66456;Laerm;56833;52.254;5.598;2023-05-07T00:05:29;42.50;41.34;43.42;;
66456;Laerm;56833;52.254;5.598;2023-05-07T00:05:39;42.52;41.51;43.42;;
66456;Laerm;56833;52.254;5.598;2023-05-07T00:05:50;42.55;41.32;43.37;;
66456;Laerm;56833;52.254;5.598;2023-05-07T00:06:02;42.51;41.36;43.68;;
66456;Laerm;56833;52.254;5.598;2023-05-07T00:06:13;42.53;41.38;43.84;;
66456;Laerm;56833;52.254;5.598;2023-05-07T00:06:24;42.51;41.13;43.45;;
66456;Laerm;56833;52.254;5.598;2023-05-07T00:06:36;42.55;41.58;43.49;;
66456;Laerm;56833;52.254;5.598;2023-05-07T00:06:46;42.54;41.57;43.44;;
66456;Laerm;56833;52.254;5.598;2023-05-07T00:06:56;42.53;41.43;43.54;;
66456;Laerm;56833;52.254;5.598;2023-05-07T00:07:06;42.50;41.24;43.59;;
66456;Laerm;56833;52.254;5.598;2023-05-07T00:07:17;42.53;41.34;43.78;;
66456;Laerm;56833;52.254;5.598;2023-05-07T00:07:27;42.53;41.44;43.49;;
66456;Laerm;56833;52.254;5.598;2023-05-07T00:07:38;42.54;41.41;43.75;;
66456;Laerm;56833;52.254;5.598;2023-05-07T00:07:48;42.52;41.58;43.42;;
66456;Laerm;56833;52.254;5.598;2023-05-07T00:07:58;42.50;41.35;43.90;;
66456;Laerm;56833;52.254;5.598;2023-05-07T00:08:09;42.43;41.42;43.48;;
66456;Laerm;56833;52.254;5.598;2023-05-07T00:08:19;42.51;41.58;43.55;;
66456;Laerm;56833;52.254;5.598;2023-05-07T00:08:30;42.51;41.31;43.87;;
66456;Laerm;56833;52.254;5.598;2023-05-07T00:08:40;42.47;41.39;43.61;;
66456;Laerm;56833;52.254;5.598;2023-05-07T00:08:51;42.51;41.26;43.62;;
66456;Laerm;56833;52.254;5.598;2023-05-07T00:09:02;42.49;41.43;43.41;;
66456;Laerm;56833;52.254;5.598;2023-05-07T00:09:13;42.49;41.38;43.67;;
66456;Laerm;56833;52.254;5.598;2023-05-07T00:09:24;42.49;41.50;43.44;;
66456;Laerm;56833;52.254;5.598;2023-05-07T00:09:34;42.51;41.31;43.52;;
66456;Laerm;56833;52.254;5.598;2023-05-07T00:09:44;42.53;41.52;43.67;;
66456;Laerm;56833;52.254;5.598;2023-05-07T00:09:55;42.46;41.32;43.53;;
66456;Laerm;56833;52.254;5.598;2023-05-07T00:10:05;42.49;41.28;43.53;;
66456;Laerm;56833;52.254;5.598;2023-05-07T00:10:16;42.51;41.49;43.79;;
66456;Laerm;56833;52.254;5.598;2023-05-07T00:10:27;42.49;41.13;43.42;;
66456;Laerm;56833;52.254;5.598;2023-05-07T00:10:37;42.47;41.16;43.39;;
66456;Laerm;56833;52.254;5.598;2023-05-07T00:10:47;42.50;41.23;43.48;;
66456;Laerm;56833;52.254;5.598;2023-05-07T00:10:58;42.50;41.61;43.51;;
66456;Laerm;56833;52.254;5.598;2023-05-07T00:11:08;42.46;41.47;43.55;;
66456;Laerm;56833;52.254;5.598;2023-05-07T00:11:18;42.50;41.40;43.53;;
66456;Laerm;56833;52.254;5.598;2023-05-07T00:11:28;42.47;41.19;43.40;;
66456;Laerm;56833;52.254;5.598;2023-05-07T00:11:39;42.49;41.41;43.74;;
66456;Laerm;56833;52.254;5.598;2023-05-07T00:11:49;42.48;41.38;43.56;;
66456;Laerm;56833;52.254;5.598;2023-05-07T00:12:00;42.49;41.49;43.58;;
66456;Laerm;56833;52.254;5.598;2023-05-07T00:12:10;42.49;41.59;43.51;;
66456;Laerm;56833;52.254;5.598;2023-05-07T00:12:23;42.53;41.43;43.58;;
66456;Laerm;56833;52.254;5.598;2023-05-07T00:12:33;42.48;41.35;43.68;;
66456;Laerm;56833;52.254;5.598;2023-05-07T00:12:43;42.49;41.47;43.53;;
66456;Laerm;56833;52.254;5.598;2023-05-07T00:12:54;42.49;41.50;43.76;;
66456;Laerm;56833;52.254;5.598;2023-05-07T00:13:04;42.46;41.45;43.76;;
66456;Laerm;56833;52.254;5.598;2023-05-07T00:13:14;42.51;41.23;43.46;;
66456;Laerm;56833;52.254;5.598;2023-05-07T00:13:25;42.48;41.46;43.67;;
66456;Laerm;56833;52.254;5.598;2023-05-07T00:13:35;42.46;41.35;43.50;;
66456;Laerm;56833;52.254;5.598;2023-05-07T00:13:46;42.45;41.29;43.74;;
66456;Laerm;56833;52.254;5.598;2023-05-07T00:13:59;42.48;41.49;43.40;;
66456;Laerm;56833;52.254;5.598;2023-05-07T00:14:10;42.51;41.42;43.49;;
66456;Laerm;56833;52.254;5.598;2023-05-07T00:14:20;42.47;41.39;43.41;;
66456;Laerm;56833;52.254;5.598;2023-05-07T00:14:30;42.45;41.65;43.75;;
66456;Laerm;56833;52.254;5.598;2023-05-07T00:14:41;42.47;41.09;43.60;;
66456;Laerm;56833;52.254;5.598;2023-05-07T00:14:51;42.47;41.33;43.42;;
66456;Laerm;56833;52.254;5.598;2023-05-07T00:15:03;42.48;41.44;43.41;;
66456;Laerm;56833;52.254;5.598;2023-05-07T00:15:14;42.51;41.37;43.51;;
66456;Laerm;56833;52.254;5.598;2023-05-07T00:15:24;42.44;41.45;43.90;;
66456;Laerm;56833;52.254;5.598;2023-05-07T00:15:34;42.46;41.54;43.55;;
66456;Laerm;56833;52.254;5.598;2023-05-07T00:15:44;42.44;41.39;43.33;;
66456;Laerm;56833;52.254;5.598;2023-05-07T00:15:55;42.45;41.46;43.29;;
66456;Laerm;56833;52.254;5.598;2023-05-07T00:16:05;42.45;41.32;43.56;;
66456;Laerm;56833;52.254;5.598;2023-05-07T00:16:18;42.47;41.43;43.78;;
66456;Laerm;56833;52.254;5.598;2023-05-07T00:16:28;42.44;41.47;43.52;;
66456;Laerm;56833;52.254;5.598;2023-05-07T00:16:38;42.44;41.28;43.63;;
66456;Laerm;56833;52.254;5.598;2023-05-07T00:16:49;42.46;41.41;43.29;;
66456;Laerm;56833;52.254;5.598;2023-05-07T00:16:59;42.48;41.35;43.43;;
66456;Laerm;56833;52.254;5.598;2023-05-07T00:17:12;42.49;41.40;43.48;;
66456;Laerm;56833;52.254;5.598;2023-05-07T00:17:22;42.46;41.18;43.37;;
66456;Laerm;56833;52.254;5.598;2023-05-07T00:17:33;42.46;41.54;43.46;;
66456;Laerm;56833;52.254;5.598;2023-05-07T00:17:43;42.47;41.36;43.45;;
66456;Laerm;56833;52.254;5.598;2023-05-07T00:17:54;42.48;41.48;43.46;;
66456;Laerm;56833;52.254;5.598;2023-05-07T00:18:04;42.46;41.42;43.36;;
66456;Laerm;56833;52.254;5.598;2023-05-07T00:18:14;42.44;41.39;43.41;;
66456;Laerm;56833;52.254;5.598;2023-05-07T00:18:25;42.44;41.57;43.59;;
66456;Laerm;56833;52.254;5.598;2023-05-07T00:18:36;42.43;40.98;43.46;;
66456;Laerm;56833;52.254;5.598;2023-05-07T00:18:46;42.48;41.23;43.52;;
66456;Laerm;56833;52.254;5.598;2023-05-07T00:18:57;42.44;41.36;43.39;;
66456;Laerm;56833;52.254;5.598;2023-05-07T00:19:07;42.47;41.27;43.51;;
66456;Laerm;56833;52.254;5.598;2023-05-07T00:19:17;42.47;41.38;43.54;;
66456;Laerm;56833;52.254;5.598;2023-05-07T00:19:28;42.42;41.29;43.45;;
66456;Laerm;56833;52.254;5.598;2023-05-07T00:19:38;42.49;41.57;43.61;;
66456;Laerm;56833;52.254;5.598;2023-05-07T00:19:48;42.46;41.43;43.58;;
66456;Laerm;56833;52.254;5.598;2023-05-07T00:19:59;42.45;41.22;43.35;;
66456;Laerm;56833;52.254;5.598;2023-05-07T00:20:09;42.43;41.57;43.50;;
66456;Laerm;56833;52.254;5.598;2023-05-07T00:20:20;42.41;41.39;43.46;;
66456;Laerm;56833;52.254;5.598;2023-05-07T00:20:30;42.45;41.28;43.48;;
66456;Laerm;56833;52.254;5.598;2023-05-07T00:20:40;42.47;41.33;43.48;;
66456;Laerm;56833;52.254;5.598;2023-05-07T00:20:51;42.46;41.51;43.57;;
66456;Laerm;56833;52.254;5.598;2023-05-07T00:21:01;42.40;41.38;43.35;;
66456;Laerm;56833;52.254;5.598;2023-05-07T00:21:11;42.48;41.42;43.96;;
66456;Laerm;56833;52.254;5.598;2023-05-07T00:21:21;42.41;41.41;43.52;;
66456;Laerm;56833;52.254;5.598;2023-05-07T00:21:32;42.43;41.23;43.41;;
66456;Laerm;56833;52.254;5.598;2023-05-07T00:21:42;42.46;41.33;43.36;;
66456;Laerm;56833;52.254;5.598;2023-05-07T00:21:52;42.46;41.26;43.69;;
66456;Laerm;56833;52.254;5.598;2023-05-07T00:22:06;42.45;41.00;43.63;;
66456;Laerm;56833;52.254;5.598;2023-05-07T00:22:17;42.45;41.53;43.70;;
66456;Laerm;56833;52.254;5.598;2023-05-07T00:22:27;42.42;41.36;43.52;;
66456;Laerm;56833;52.254;5.598;2023-05-07T00:22:40;42.46;41.20;43.46;;
66456;Laerm;56833;52.254;5.598;2023-05-07T00:22:50;42.44;41.46;43.37;;
66456;Laerm;56833;52.254;5.598;2023-05-07T00:23:00;42.45;41.37;43.30;;
66456;Laerm;56833;52.254;5.598;2023-05-07T00:23:11;42.44;41.37;43.47;;
66456;Laerm;56833;52.254;5.598;2023-05-07T00:23:22;42.47;41.27;43.75;;
66456;Laerm;56833;52.254;5.598;2023-05-07T00:23:32;42.45;41.27;43.52;;
66456;Laerm;56833;52.254;5.598;2023-05-07T00:23:45;42.44;41.40;43.59;;
66456;Laerm;56833;52.254;5.598;2023-05-07T00:23:55;42.45;41.28;43.53;;
66456;Laerm;56833;52.254;5.598;2023-05-07T00:24:05;42.45;41.27;43.36;;
66456;Laerm;56833;52.254;5.598;2023-05-07T00:24:15;42.45;41.50;43.57;;
66456;Laerm;56833;52.254;5.598;2023-05-07T00:24:26;42.44;41.19;43.44;;
66456;Laerm;56833;52.254;5.598;2023-05-07T00:24:36;42.45;41.54;43.33;;
66456;Laerm;56833;52.254;5.598;2023-05-07T00:24:50;42.44;41.22;43.52;;
66456;Laerm;56833;52.254;5.598;2023-05-07T00:25:00;42.46;41.48;43.63;;
66456;Laerm;56833;52.254;5.598;2023-05-07T00:25:10;42.41;41.36;43.53;;
66456;Laerm;56833;52.254;5.598;2023-05-07T00:25:24;42.45;41.13;43.46;;
66456;Laerm;56833;52.254;5.598;2023-05-07T00:25:34;42.44;41.33;43.51;;
66456;Laerm;56833;52.254;5.598;2023-05-07T00:25:44;42.42;41.30;43.34;;
66456;Laerm;56833;52.254;5.598;2023-05-07T00:25:55;42.43;41.54;43.42;;
66456;Laerm;56833;52.254;5.598;2023-05-07T00:26:06;42.42;41.30;43.37;;
66456;Laerm;56833;52.254;5.598;2023-05-07T00:26:16;42.44;41.27;43.63;;
66456;Laerm;56833;52.254;5.598;2023-05-07T00:26:26;42.44;41.34;43.45;;
66456;Laerm;56833;52.254;5.598;2023-05-07T00:26:37;42.47;41.34;43.46;;
66456;Laerm;56833;52.254;5.598;2023-05-07T00:26:47;42.43;41.51;43.62;;
66456;Laerm;56833;52.254;5.598;2023-05-07T00:26:57;42.45;41.57;43.65;;
66456;Laerm;56833;52.254;5.598;2023-05-07T00:27:08;42.42;41.20;43.75;;
66456;Laerm;56833;52.254;5.598;2023-05-07T00:27:18;42.46;41.36;43.45;;
66456;Laerm;56833;52.254;5.598;2023-05-07T00:27:28;42.41;41.31;43.42;;
66456;Laerm;56833;52.254;5.598;2023-05-07T00:27:39;42.43;41.43;43.43;;
66456;Laerm;56833;52.254;5.598;2023-05-07T00:27:52;42.45;41.20;43.56;;
66456;Laerm;56833;52.254;5.598;2023-05-07T00:28:02;42.41;41.33;43.48;;
66456;Laerm;56833;52.254;5.598;2023-05-07T00:28:13;42.43;41.38;43.59;;
66456;Laerm;56833;52.254;5.598;2023-05-07T00:28:24;42.41;41.32;43.40;;
66456;Laerm;56833;52.254;5.598;2023-05-07T00:28:34;42.44;41.23;43.48;;
66456;Laerm;56833;52.254;5.598;2023-05-07T00:28:45;42.42;41.20;43.44;;
66456;Laerm;56833;52.254;5.598;2023-05-07T00:28:55;42.46;41.47;43.40;;
66456;Laerm;56833;52.254;5.598;2023-05-07T00:29:05;42.41;41.24;43.29;;
66456;Laerm;56833;52.254;5.598;2023-05-07T00:29:16;42.43;41.39;43.42;;
66456;Laerm;56833;52.254;5.598;2023-05-07T00:29:26;42.45;40.89;43.61;;
66456;Laerm;56833;52.254;5.598;2023-05-07T00:29:36;42.43;41.24;43.48;;
66456;Laerm;56833;52.254;5.598;2023-05-07T00:29:47;42.40;41.46;43.20;;
66456;Laerm;56833;52.254;5.598;2023-05-07T00:29:57;42.37;41.34;43.42;;
66456;Laerm;56833;52.254;5.598;2023-05-07T00:30:07;42.44;41.44;43.39;;
66456;Laerm;56833;52.254;5.598;2023-05-07T00:30:18;42.42;41.21;43.58;;
66456;Laerm;56833;52.254;5.598;2023-05-07T00:30:28;42.44;41.31;43.50;;
66456;Laerm;56833;52.254;5.598;2023-05-07T00:30:38;42.46;41.49;43.34;;
66456;Laerm;56833;52.254;5.598;2023-05-07T00:30:49;42.41;41.32;43.45;;
66456;Laerm;56833;52.254;5.598;2023-05-07T00:30:59;42.45;41.33;43.75;;
66456;Laerm;56833;52.254;5.598;2023-05-07T00:31:09;42.41;41.31;43.47;;
66456;Laerm;56833;52.254;5.598;2023-05-07T00:31:20;42.44;41.26;43.61;;
66456;Laerm;56833;52.254;5.598;2023-05-07T00:31:30;42.42;41.44;43.33;;
66456;Laerm;56833;52.254;5.598;2023-05-07T00:31:40;42.45;41.25;43.48;;
66456;Laerm;56833;52.254;5.598;2023-05-07T00:31:50;42.39;41.23;43.33;;
66456;Laerm;56833;52.254;5.598;2023-05-07T00:32:01;42.39;41.40;43.40;;
66456;Laerm;56833;52.254;5.598;2023-05-07T00:32:11;42.42;41.28;43.50;;
66456;Laerm;56833;52.254;5.598;2023-05-07T00:32:21;42.46;41.40;43.71;;
66456;Laerm;56833;52.254;5.598;2023-05-07T00:32:32;42.44;41.23;43.49;;
66456;Laerm;56833;52.254;5.598;2023-05-07T00:32:42;42.45;41.51;43.35;;
66456;Laerm;56833;52.254;5.598;2023-05-07T00:32:55;42.43;41.40;43.48;;
66456;Laerm;56833;52.254;5.598;2023-05-07T00:33:05;42.48;41.50;43.56;;
66456;Laerm;56833;52.254;5.598;2023-05-07T00:33:15;42.43;41.48;43.41;;
66456;Laerm;56833;52.254;5.598;2023-05-07T00:33:26;42.39;41.44;43.69;;
66456;Laerm;56833;52.254;5.598;2023-05-07T00:33:37;42.43;41.34;43.47;;
66456;Laerm;56833;52.254;5.598;2023-05-07T00:33:47;42.43;41.40;43.28;;
66456;Laerm;56833;52.254;5.598;2023-05-07T00:33:58;42.40;41.31;43.33;;
66456;Laerm;56833;52.254;5.598;2023-05-07T00:34:08;42.43;41.47;43.85;;
66456;Laerm;56833;52.254;5.598;2023-05-07T00:34:19;42.43;41.41;43.39;;
66456;Laerm;56833;52.254;5.598;2023-05-07T00:34:30;42.40;41.27;43.30;;
66456;Laerm;56833;52.254;5.598;2023-05-07T00:34:40;42.41;41.47;43.53;;
66456;Laerm;56833;52.254;5.598;2023-05-07T00:34:50;42.42;41.45;43.29;;
66456;Laerm;56833;52.254;5.598;2023-05-07T00:35:01;42.40;41.20;43.66;;
66456;Laerm;56833;52.254;5.598;2023-05-07T00:35:11;42.39;41.23;43.47;;
66456;Laerm;56833;52.254;5.598;2023-05-07T00:35:21;42.43;41.34;43.48;;
66456;Laerm;56833;52.254;5.598;2023-05-07T00:35:34;42.43;41.33;43.46;;
66456;Laerm;56833;52.254;5.598;2023-05-07T00:35:44;42.43;41.23;43.62;;
66456;Laerm;56833;52.254;5.598;2023-05-07T00:35:55;42.42;41.54;43.42;;
66456;Laerm;56833;52.254;5.598;2023-05-07T00:36:05;42.43;41.48;43.52;;
66456;Laerm;56833;52.254;5.598;2023-05-07T00:36:15;42.39;41.32;43.57;;
66456;Laerm;56833;52.254;5.598;2023-05-07T00:36:27;42.44;41.36;43.60;;
66456;Laerm;56833;52.254;5.598;2023-05-07T00:36:38;42.39;41.51;43.30;;
66456;Laerm;56833;52.254;5.598;2023-05-07T00:36:49;42.42;41.55;43.43;;
66456;Laerm;56833;52.254;5.598;2023-05-07T00:37:00;42.39;41.31;43.46;;
66456;Laerm;56833;52.254;5.598;2023-05-07T00:37:11;42.41;41.21;43.38;;
66456;Laerm;56833;52.254;5.598;2023-05-07T00:37:22;42.40;41.23;43.82;;
66456;Laerm;56833;52.254;5.598;2023-05-07T00:37:32;42.40;41.40;43.42;;
66456;Laerm;56833;52.254;5.598;2023-05-07T00:37:42;42.44;41.62;43.43;;
66456;Laerm;56833;52.254;5.598;2023-05-07T00:37:53;42.44;41.21;43.42;;
66456;Laerm;56833;52.254;5.598;2023-05-07T00:38:03;42.39;41.36;43.28;;
66456;Laerm;56833;52.254;5.598;2023-05-07T00:38:13;42.43;41.36;43.37;;
66456;Laerm;56833;52.254;5.598;2023-05-07T00:38:24;42.41;41.22;43.43;;
66456;Laerm;56833;52.254;5.598;2023-05-07T00:38:37;42.41;41.28;43.81;;
66456;Laerm;56833;52.254;5.598;2023-05-07T00:38:47;42.40;41.44;43.36;;
66456;Laerm;56833;52.254;5.598;2023-05-07T00:38:59;42.37;41.34;43.28;;
66456;Laerm;56833;52.254;5.598;2023-05-07T00:39:10;42.41;41.15;43.38;;
66456;Laerm;56833;52.254;5.598;2023-05-07T00:39:20;42.40;41.40;43.37;;
66456;Laerm;56833;52.254;5.598;2023-05-07T00:39:30;42.43;41.21;43.68;;
66456;Laerm;56833;52.254;5.598;2023-05-07T00:39:41;42.45;41.66;43.35;;
66456;Laerm;56833;52.254;5.598;2023-05-07T00:39:51;42.41;41.17;43.36;;
66456;Laerm;56833;52.254;5.598;2023-05-07T00:40:01;42.41;41.36;43.50;;
66456;Laerm;56833;52.254;5.598;2023-05-07T00:40:14;42.39;41.57;43.30;;
66456;Laerm;56833;52.254;5.598;2023-05-07T00:40:24;42.39;41.37;43.28;;
66456;Laerm;56833;52.254;5.598;2023-05-07T00:40:35;42.40;41.38;43.46;;
66456;Laerm;56833;52.254;5.598;2023-05-07T00:40:45;42.45;41.50;43.52;;
66456;Laerm;56833;52.254;5.598;2023-05-07T00:40:55;42.43;41.05;43.78;;
66456;Laerm;56833;52.254;5.598;2023-05-07T00:41:06;42.42;41.30;43.33;;
66456;Laerm;56833;52.254;5.598;2023-05-07T00:41:16;42.39;41.06;43.36;;
66456;Laerm;56833;52.254;5.598;2023-05-07T00:41:27;42.40;41.41;43.32;;
66456;Laerm;56833;52.254;5.598;2023-05-07T00:41:37;42.40;41.27;43.31;;
66456;Laerm;56833;52.254;5.598;2023-05-07T00:41:47;42.41;41.48;43.27;;
66456;Laerm;56833;52.254;5.598;2023-05-07T00:41:59;42.43;41.55;43.41;;
66456;Laerm;56833;52.254;5.598;2023-05-07T00:42:11;42.42;41.26;43.43;;
66456;Laerm;56833;52.254;5.598;2023-05-07T00:42:21;42.46;41.15;43.40;;
66456;Laerm;56833;52.254;5.598;2023-05-07T00:42:31;42.43;41.52;43.77;;
66456;Laerm;56833;52.254;5.598;2023-05-07T00:42:42;42.42;41.48;43.47;;
66456;Laerm;56833;52.254;5.598;2023-05-07T00:42:56;42.39;41.27;43.54;;
66456;Laerm;56833;52.254;5.598;2023-05-07T00:43:08;42.45;41.40;43.63;;
66456;Laerm;56833;52.254;5.598;2023-05-07T00:43:18;42.39;41.34;43.22;;
66456;Laerm;56833;52.254;5.598;2023-05-07T00:43:29;42.43;41.47;43.33;;
66456;Laerm;56833;52.254;5.598;2023-05-07T00:43:39;42.41;41.39;43.61;;
66456;Laerm;56833;52.254;5.598;2023-05-07T00:43:50;42.39;41.18;43.44;;
66456;Laerm;56833;52.254;5.598;2023-05-07T00:44:01;42.40;41.19;43.37;;
66456;Laerm;56833;52.254;5.598;2023-05-07T00:44:12;42.40;41.35;43.34;;
66456;Laerm;56833;52.254;5.598;2023-05-07T00:44:26;42.39;41.51;43.28;;
66456;Laerm;56833;52.254;5.598;2023-05-07T00:44:36;42.42;41.20;43.50;;
66456;Laerm;56833;52.254;5.598;2023-05-07T00:44:47;42.44;41.38;43.68;;
66456;Laerm;56833;52.254;5.598;2023-05-07T00:44:57;42.39;41.36;43.51;;
66456;Laerm;56833;52.254;5.598;2023-05-07T00:45:08;42.42;41.39;43.35;;
66456;Laerm;56833;52.254;5.598;2023-05-07T00:45:19;42.42;41.43;43.40;;
66456;Laerm;56833;52.254;5.598;2023-05-07T00:45:29;42.41;41.17;43.71;;
66456;Laerm;56833;52.254;5.598;2023-05-07T00:45:42;42.38;41.39;43.49;;
66456;Laerm;56833;52.254;5.598;2023-05-07T00:45:53;42.40;41.60;43.59;;
66456;Laerm;56833;52.254;5.598;2023-05-07T00:46:03;42.38;41.16;43.31;;
66456;Laerm;56833;52.254;5.598;2023-05-07T00:46:17;42.38;41.34;43.30;;
66456;Laerm;56833;52.254;5.598;2023-05-07T00:46:30;42.39;41.38;43.44;;
66456;Laerm;56833;52.254;5.598;2023-05-07T00:46:41;42.39;41.45;43.36;;
66456;Laerm;56833;52.254;5.598;2023-05-07T00:46:51;42.41;41.28;43.34;;
66456;Laerm;56833;52.254;5.598;2023-05-07T00:47:02;42.39;41.34;43.44;;
66456;Laerm;56833;52.254;5.598;2023-05-07T00:47:13;42.42;41.24;43.34;;
66456;Laerm;56833;52.254;5.598;2023-05-07T00:47:24;42.41;41.35;43.51;;
66456;Laerm;56833;52.254;5.598;2023-05-07T00:47:35;42.38;41.47;43.14;;
66456;Laerm;56833;52.254;5.598;2023-05-07T00:47:45;42.37;41.02;43.41;;
66456;Laerm;56833;52.254;5.598;2023-05-07T00:47:59;42.34;40.97;43.42;;
66456;Laerm;56833;52.254;5.598;2023-05-07T00:48:10;42.38;40.79;43.77;;
66456;Laerm;56833;52.254;5.598;2023-05-07T00:48:21;42.37;41.43;43.35;;
66456;Laerm;56833;52.254;5.598;2023-05-07T00:48:31;42.42;41.43;43.43;;
66456;Laerm;56833;52.254;5.598;2023-05-07T00:48:42;42.40;41.28;43.51;;
66456;Laerm;56833;52.254;5.598;2023-05-07T00:48:52;42.41;41.36;43.37;;
66456;Laerm;56833;52.254;5.598;2023-05-07T00:49:03;42.38;41.34;43.36;;
66456;Laerm;56833;52.254;5.598;2023-05-07T00:49:15;42.40;41.22;43.53;;
66456;Laerm;56833;52.254;5.598;2023-05-07T00:49:26;42.39;41.03;43.33;;
66456;Laerm;56833;52.254;5.598;2023-05-07T00:49:42;42.39;41.38;43.46;;
66456;Laerm;56833;52.254;5.598;2023-05-07T00:49:53;42.42;41.50;43.53;;
66456;Laerm;56833;52.254;5.598;2023-05-07T00:50:04;42.43;41.20;43.34;;
66456;Laerm;56833;52.254;5.598;2023-05-07T00:50:15;42.42;40.95;43.68;;
66456;Laerm;56833;52.254;5.598;2023-05-07T00:50:27;42.41;41.20;43.51;;
66456;Laerm;56833;52.254;5.598;2023-05-07T00:50:38;42.37;41.30;43.36;;
66456;Laerm;56833;52.254;5.598;2023-05-07T00:50:48;42.40;41.35;43.45;;
66456;Laerm;56833;52.254;5.598;2023-05-07T00:50:58;42.41;41.32;43.33;;
66456;Laerm;56833;52.254;5.598;2023-05-07T00:51:09;42.41;41.28;43.28;;
66456;Laerm;56833;52.254;5.598;2023-05-07T00:51:21;42.39;41.36;43.42;;
66456;Laerm;56833;52.254;5.598;2023-05-07T00:51:31;42.44;41.56;43.58;;
66456;Laerm;56833;52.254;5.598;2023-05-07T00:51:42;42.39;41.39;43.33;;
66456;Laerm;56833;52.254;5.598;2023-05-07T00:51:52;42.35;41.19;43.81;;
66456;Laerm;56833;52.254;5.598;2023-05-07T00:52:02;42.42;41.29;43.47;;
66456;Laerm;56833;52.254;5.598;2023-05-07T00:52:14;42.36;41.36;43.33;;
66456;Laerm;56833;52.254;5.598;2023-05-07T00:52:25;42.40;41.35;43.36;;
66456;Laerm;56833;52.254;5.598;2023-05-07T00:52:36;42.40;41.45;43.23;;
66456;Laerm;56833;52.254;5.598;2023-05-07T00:52:47;42.41;41.36;43.68;;
66456;Laerm;56833;52.254;5.598;2023-05-07T00:52:57;42.38;40.96;43.41;;
66456;Laerm;56833;52.254;5.598;2023-05-07T00:53:08;42.43;41.03;43.51;;
66456;Laerm;56833;52.254;5.598;2023-05-07T00:53:22;42.38;41.02;43.51;;
66456;Laerm;56833;52.254;5.598;2023-05-07T00:53:32;42.40;41.37;43.38;;
66456;Laerm;56833;52.254;5.598;2023-05-07T00:53:42;42.39;41.33;43.26;;
66456;Laerm;56833;52.254;5.598;2023-05-07T00:53:53;42.40;41.45;43.45;;
66456;Laerm;56833;52.254;5.598;2023-05-07T00:54:03;42.42;41.28;43.29;;
66456;Laerm;56833;52.254;5.598;2023-05-07T00:54:14;42.44;41.32;43.35;;
66456;Laerm;56833;52.254;5.598;2023-05-07T00:54:24;42.41;41.37;43.44;;
66456;Laerm;56833;52.254;5.598;2023-05-07T00:54:35;42.39;41.50;43.36;;
66456;Laerm;56833;52.254;5.598;2023-05-07T00:54:46;42.39;41.30;43.37;;
66456;Laerm;56833;52.254;5.598;2023-05-07T00:54:56;42.36;41.01;43.42;;
66456;Laerm;56833;52.254;5.598;2023-05-07T00:55:10;42.36;41.33;43.46;;
66456;Laerm;56833;52.254;5.598;2023-05-07T00:55:21;42.37;40.95;43.34;;
66456;Laerm;56833;52.254;5.598;2023-05-07T00:55:32;42.38;41.39;43.37;;
66456;Laerm;56833;52.254;5.598;2023-05-07T00:55:42;42.38;41.18;43.43;;
66456;Laerm;56833;52.254;5.598;2023-05-07T00:55:53;42.38;41.24;43.27;;
66456;Laerm;56833;52.254;5.598;2023-05-07T00:56:03;42.40;41.14;43.73;;
66456;Laerm;56833;52.254;5.598;2023-05-07T00:56:16;42.37;41.35;43.57;;
66456;Laerm;56833;52.254;5.598;2023-05-07T00:56:26;42.37;41.20;43.27;;
66456;Laerm;56833;52.254;5.598;2023-05-07T00:56:37;42.39;41.47;43.24;;
66456;Laerm;56833;52.254;5.598;2023-05-07T00:56:50;42.35;41.24;43.30;;
66456;Laerm;56833;52.254;5.598;2023-05-07T00:57:02;42.35;41.44;43.49;;
66456;Laerm;56833;52.254;5.598;2023-05-07T00:57:12;42.33;41.31;43.46;;
66456;Laerm;56833;52.254;5.598;2023-05-07T00:57:26;42.36;41.30;43.51;;
66456;Laerm;56833;52.254;5.598;2023-05-07T00:57:36;42.39;41.35;43.42;;
66456;Laerm;56833;52.254;5.598;2023-05-07T00:57:47;42.39;41.25;43.57;;
66456;Laerm;56833;52.254;5.598;2023-05-07T00:57:57;42.38;41.33;43.55;;
66456;Laerm;56833;52.254;5.598;2023-05-07T00:58:07;42.37;41.36;43.44;;
66456;Laerm;56833;52.254;5.598;2023-05-07T00:58:18;42.35;41.14;43.38;;
66456;Laerm;56833;52.254;5.598;2023-05-07T00:58:29;42.33;41.21;43.51;;
66456;Laerm;56833;52.254;5.598;2023-05-07T00:58:40;42.38;41.13;43.41;;
66456;Laerm;56833;52.254;5.598;2023-05-07T00:58:50;42.39;41.34;43.64;;
66456;Laerm;56833;52.254;5.598;2023-05-07T00:59:01;42.35;41.35;43.43;;
66456;Laerm;56833;52.254;5.598;2023-05-07T00:59:11;42.38;41.31;43.57;;
66456;Laerm;56833;52.254;5.598;2023-05-07T00:59:22;42.34;41.36;43.45;;
66456;Laerm;56833;52.254;5.598;2023-05-07T00:59:39;42.34;40.99;43.51;;
66456;Laerm;56833;52.254;5.598;2023-05-07T00:59:51;42.35;41.23;43.81;;
66456;Laerm;56833;52.254;5.598;2023-05-07T01:00:02;42.34;41.30;43.26;;
66456;Laerm;56833;52.254;5.598;2023-05-07T01:00:13;42.37;41.39;43.45;;
66456;Laerm;56833;52.254;5.598;2023-05-07T01:00:23;42.37;41.39;43.51;;